Terminal Aerodrome Forecast
Issued by NWS

Home | Current Version | Previous Version | Text Only | Print | Product List | Glossary On
Versions: 1 2 3 4 5 6 7 8 9 10 11 12 13
000
FTUS46 KLOX 251700 RRA
TAFSBA
TAF
KSBA 251741Z 2518/2618 VRB04KT P6SM SKC
     FM251900 18006KT P6SM SCT100
     FM252100 25009KT P6SM BKN080
     FM260100 29005KT P6SM BKN100
     FM261300 VRB03KT P6SM SCT150=

USA.gov is the U.S. government's official web portal to all federal, state and local government web resources and services.